メインページ
METAR-TAF:

METAR-TAF

空港 :

エルモシージョ, メキシコ

緯度: 29-04N, 経度: 110-57W, 海抜: 211m

現時点の気象観測

当レポートは38分前の01:40(UTC)に作成
西/南西の風 7kt
気温 30°C
湿度 12%
気圧 1014 hPa
視程: 16.1km
高度20000ftの千切れ雲あり

METAR: MMHO 260140Z 24007KT 10SM BKN200 30/M03 A2993 RMK 8/008

時間: 19:18 (02:18 UTC)

予報

当レポートは9時間30分前の16:48(UTC)に作成
予報は25日の 18時(UTC)から 26日の 18時(UTC)まで有効
西の風 10kt
視程: 10km
高度25000ftの雲は散在している
26日の 0400時(UTC)から
南西の風 6kt
視程: 10km
高度25000ftの雲は散在している
26日の 1600時(UTC)から
西/南西の風 10kt
視程: 10km
高度25000ftの千切れ雲あり

TAF: MMHO 251648Z 2518/2618 26010KT P6SM SCT250 FM260400 22006KT P6SM SCT250 FM261600 24010KT P6SM BKN250

4,000以上の空港の気象観測と天気予報(METAR報とTAF報)

利用可能な観測所は地図上に黄色い丸と赤い丸で示す。

丸の上にカーソルを重ねると観測所名を参照できる。

次にクリックすると気象観測と天気予報を参照できる。

マップの切り替え:黒色「×」印の緑ボタンをクリックして拡大、「-」印の緑ボタンをクリックして縮小、緑色の三角印をクリックして隣りの地図に切り替え


METAR-TAF: